Time;durP1;ratioP1;P1;durP2;ratioP2;P2;SDS_P1;SDS_P2;PMS_P1;PMS_P2;Temp;Humidity;BMP_temperature;BMP_pressure;BME280_temperature;BME280_humidity;BME280_pressure;Samples;Min_cycle;Max_cycle;Signal;HPM_P1;HPM_P2
2023/03/29 00:00:07;;;;;;;6.82;5.70;;;;;;;;;;5016879;28;20228;-70
2023/03/29 00:02:34;;;;;;;6.65;5.90;;;;;;;;;;5006805;28;20193;-69
2023/03/29 00:05:03;;;;;;;10.35;6.50;;;;;;;;;;4996546;28;20224;-70
2023/03/29 00:07:32;;;;;;;6.43;5.30;;;;;;;;;;4996401;28;20681;-70
2023/03/29 00:10:00;;;;;;;6.78;5.82;;;;;;;;;;5008563;28;20210;-70
2023/03/29 00:12:27;;;;;;;7.95;5.75;;;;;;;;;;5016353;28;20319;-70
2023/03/29 00:14:56;;;;;;;7.13;6.15;;;;;;;;;;5016432;28;20197;-70
2023/03/29 00:17:23;;;;;;;8.57;6.05;;;;;;;;;;5016228;28;20570;-70
2023/03/29 00:19:50;;;;;;;6.63;6.03;;;;;;;;;;5016478;28;20199;-70
2023/03/29 00:22:18;;;;;;;7.53;6.22;;;;;;;;;;5016246;28;20195;-70
2023/03/29 00:24:46;;;;;;;8.60;5.63;;;;;;;;;;5016743;28;20200;-70
2023/03/29 00:27:13;;;;;;;7.80;5.57;;;;;;;;;;5015716;28;20663;-70
2023/03/29 00:29:41;;;;;;;7.68;6.20;;;;;;;;;;5016014;28;20204;-70
2023/03/29 00:32:09;;;;;;;5.63;5.00;;;;;;;;;;5015251;28;20578;-73
2023/03/29 00:34:36;;;;;;;8.57;6.00;;;;;;;;;;5015168;28;20234;-70
2023/03/29 00:37:06;;;;;;;6.35;4.80;;;;;;;;;;5015557;28;20206;-70
2023/03/29 00:39:33;;;;;;;6.50;5.25;;;;;;;;;;5015469;28;20203;-70
2023/03/29 00:42:00;;;;;;;6.00;5.25;;;;;;;;;;5016301;28;20303;-70
2023/03/29 00:44:46;;;;;;;6.32;5.68;;;;;;;;;;5015687;28;20550;-70
2023/03/29 00:47:16;;;;;;;5.70;5.20;;;;;;;;;;5015671;28;20196;-70
2023/03/29 00:49:44;;;;;;;5.93;5.30;;;;;;;;;;5015979;28;20188;-70
2023/03/29 00:52:13;;;;;;;6.25;4.95;;;;;;;;;;5015317;28;20200;-70
2023/03/29 00:54:42;;;;;;;5.50;5.00;;;;;;;;;;5015370;28;20197;-70
2023/03/29 00:57:10;;;;;;;5.78;4.85;;;;;;;;;;5015645;28;20207;-70
2023/03/29 00:59:38;;;;;;;5.75;4.55;;;;;;;;;;5015093;28;20208;-70
2023/03/29 01:02:06;;;;;;;6.88;5.05;;;;;;;;;;5014206;28;20311;-70
2023/03/29 01:04:36;;;;;;;5.55;4.38;;;;;;;;;;5015166;28;20204;-70
2023/03/29 01:07:04;;;;;;;8.10;4.53;;;;;;;;;;5015596;28;20227;-70
2023/03/29 01:09:33;;;;;;;4.90;4.00;;;;;;;;;;5013994;28;20194;-70
2023/03/29 01:12:03;;;;;;;5.05;4.38;;;;;;;;;;5014901;28;20200;-70
2023/03/29 01:14:34;;;;;;;5.57;4.97;;;;;;;;;;5014827;28;20198;-70
2023/03/29 01:17:02;;;;;;;5.95;5.35;;;;;;;;;;5015185;28;20191;-70
2023/03/29 01:19:32;;;;;;;5.63;4.93;;;;;;;;;;5014680;28;20205;-70
2023/03/29 01:22:06;;;;;;;7.07;5.38;;;;;;;;;;5015676;28;20549;-70
2023/03/29 01:24:42;;;;;;;5.75;5.25;;;;;;;;;;5014939;28;20197;-70
2023/03/29 01:27:14;;;;;;;8.77;5.03;;;;;;;;;;5014612;28;20214;-70
2023/03/29 01:29:45;;;;;;;5.45;4.95;;;;;;;;;;5015072;28;20630;-70
2023/03/29 01:32:15;;;;;;;5.70;5.07;;;;;;;;;;5014927;28;20200;-70
2023/03/29 01:34:43;;;;;;;7.72;4.65;;;;;;;;;;5014857;28;20228;-70
2023/03/29 01:37:12;;;;;;;6.78;5.65;;;;;;;;;;5014881;28;20209;-70
2023/03/29 01:39:40;;;;;;;6.65;5.85;;;;;;;;;;5014911;28;20650;-70
2023/03/29 01:42:11;;;;;;;8.43;5.55;;;;;;;;;;5014918;28;20195;-70
2023/03/29 01:44:44;;;;;;;6.85;5.78;;;;;;;;;;5014390;28;20198;-70
2023/03/29 01:47:18;;;;;;;9.63;5.40;;;;;;;;;;5014789;28;20554;-70
2023/03/29 01:49:47;;;;;;;5.63;5.13;;;;;;;;;;5014528;28;20612;-70
2023/03/29 01:52:15;;;;;;;15.30;6.70;;;;;;;;;;5014166;28;20198;-69
2023/03/29 01:54:48;;;;;;;6.50;5.47;;;;;;;;;;5014910;28;20200;-70
2023/03/29 01:57:16;;;;;;;8.13;5.38;;;;;;;;;;5014364;28;20630;-70
2023/03/29 01:59:46;;;;;;;6.70;5.97;;;;;;;;;;5014200;28;20298;-70
2023/03/29 02:02:16;;;;;;;7.65;5.70;;;;;;;;;;5010804;28;20254;-70
2023/03/29 02:04:46;;;;;;;6.57;5.90;;;;;;;;;;4994922;28;20207;-70
2023/03/29 02:07:14;;;;;;;6.55;5.72;;;;;;;;;;4994803;28;20235;-70
2023/03/29 02:09:43;;;;;;;7.85;5.78;;;;;;;;;;4997381;28;20200;-70
2023/03/29 02:12:10;;;;;;;6.28;5.68;;;;;;;;;;4994616;28;20210;-70
2023/03/29 02:14:38;;;;;;;6.63;5.90;;;;;;;;;;4994500;28;20226;-70
2023/03/29 02:17:19;;;;;;;6.07;4.97;;;;;;;;;;4994229;28;20295;-70
2023/03/29 02:19:49;;;;;;;4.65;3.97;;;;;;;;;;4994652;28;20204;-70
2023/03/29 02:22:18;;;;;;;5.72;5.15;;;;;;;;;;4994134;28;20200;-70
2023/03/29 02:24:47;;;;;;;6.40;5.05;;;;;;;;;;4994497;28;20204;-70
2023/03/29 02:27:14;;;;;;;5.55;4.80;;;;;;;;;;4994131;28;20224;-70
2023/03/29 02:29:42;;;;;;;6.10;4.90;;;;;;;;;;4994279;28;20208;-70
2023/03/29 02:32:10;;;;;;;6.15;5.55;;;;;;;;;;4994750;28;20258;-70
2023/03/29 02:34:42;;;;;;;7.53;5.50;;;;;;;;;;4993569;28;20242;-70
2023/03/29 02:37:11;;;;;;;5.22;4.72;;;;;;;;;;4994438;28;20194;-70
2023/03/29 02:39:38;;;;;;;8.18;5.63;;;;;;;;;;4994121;28;20197;-70
2023/03/29 02:42:06;;;;;;;5.80;4.65;;;;;;;;;;4994377;28;20200;-70
2023/03/29 02:44:36;;;;;;;6.47;5.75;;;;;;;;;;4994066;28;20210;-70
2023/03/29 02:47:06;;;;;;;5.60;4.93;;;;;;;;;;4994028;28;20250;-70
2023/03/29 02:49:33;;;;;;;6.00;4.90;;;;;;;;;;4994157;28;20199;-70
2023/03/29 02:52:07;;;;;;;6.03;5.45;;;;;;;;;;4994377;28;20216;-70
2023/03/29 02:54:36;;;;;;;5.80;5.00;;;;;;;;;;4994205;28;20189;-70
2023/03/29 02:57:05;;;;;;;7.95;4.95;;;;;;;;;;4996426;28;20219;-70
2023/03/29 02:59:33;;;;;;;7.47;5.63;;;;;;;;;;4998024;28;20215;-70
2023/03/29 03:02:00;;;;;;;6.90;5.45;;;;;;;;;;5000953;28;20669;-71
2023/03/29 03:04:28;;;;;;;5.80;5.20;;;;;;;;;;4997691;28;20206;-70
2023/03/29 03:06:55;;;;;;;6.38;5.20;;;;;;;;;;4997790;28;20320;-70
2023/03/29 03:09:24;;;;;;;7.20;5.78;;;;;;;;;;5004816;28;20217;-70
2023/03/29 03:11:51;;;;;;;7.32;5.43;;;;;;;;;;5017595;28;20202;-70
2023/03/29 03:14:21;;;;;;;6.15;5.28;;;;;;;;;;5017725;28;20557;-71
2023/03/29 03:16:48;;;;;;;5.50;4.97;;;;;;;;;;5017396;28;20574;-70
2023/03/29 03:19:15;;;;;;;8.77;5.00;;;;;;;;;;5017293;28;20202;-70
2023/03/29 03:21:43;;;;;;;8.35;4.85;;;;;;;;;;5016888;28;20209;-70
2023/03/29 03:24:10;;;;;;;10.00;6.60;;;;;;;;;;5016955;28;20203;-70
2023/03/29 03:26:39;;;;;;;6.90;5.72;;;;;;;;;;5017359;28;20216;-70
2023/03/29 03:29:06;;;;;;;6.85;6.15;;;;;;;;;;5017184;28;20199;-71
2023/03/29 03:31:33;;;;;;;9.02;5.88;;;;;;;;;;5016722;28;20686;-69
2023/03/29 03:34:00;;;;;;;7.25;6.35;;;;;;;;;;5016840;28;20656;-70
2023/03/29 03:36:30;;;;;;;9.13;6.20;;;;;;;;;;5016572;28;20231;-70
2023/03/29 03:38:57;;;;;;;6.55;5.45;;;;;;;;;;5016707;28;20208;-68
2023/03/29 03:41:25;;;;;;;7.43;5.90;;;;;;;;;;5016556;28;20661;-69
2023/03/29 03:43:53;;;;;;;7.03;5.75;;;;;;;;;;5016575;28;20204;-69
2023/03/29 03:46:21;;;;;;;9.73;6.50;;;;;;;;;;5016780;28;20219;-69
2023/03/29 03:48:48;;;;;;;7.00;5.85;;;;;;;;;;5016780;28;20200;-69
2023/03/29 03:51:15;;;;;;;7.65;5.85;;;;;;;;;;5015273;28;20208;-70
2023/03/29 03:53:42;;;;;;;8.70;5.95;;;;;;;;;;5016466;28;20203;-70
2023/03/29 03:56:10;;;;;;;6.03;5.07;;;;;;;;;;5016521;28;20291;-69
2023/03/29 03:58:37;;;;;;;6.35;5.47;;;;;;;;;;5016247;28;20286;-69
2023/03/29 04:01:07;;;;;;;5.70;5.10;;;;;;;;;;5016632;28;20283;-69
2023/03/29 04:03:34;;;;;;;6.47;5.78;;;;;;;;;;5016129;28;20230;-70
2023/03/29 04:06:02;;;;;;;6.80;5.47;;;;;;;;;;5016905;28;20314;-69
2023/03/29 04:08:29;;;;;;;5.32;4.80;;;;;;;;;;5015822;28;20192;-70
2023/03/29 04:10:57;;;;;;;7.97;5.25;;;;;;;;;;5016335;28;20551;-69
2023/03/29 04:13:24;;;;;;;5.15;4.30;;;;;;;;;;5015929;28;20200;-69
2023/03/29 04:15:53;;;;;;;5.95;5.05;;;;;;;;;;5015791;28;20208;-69
2023/03/29 04:18:21;;;;;;;5.50;4.95;;;;;;;;;;5016148;28;20201;-69
2023/03/29 04:20:49;;;;;;;6.40;5.50;;;;;;;;;;5015967;28;20289;-69
2023/03/29 04:23:16;;;;;;;6.53;4.85;;;;;;;;;;5016070;28;20199;-70
2023/03/29 04:25:43;;;;;;;4.65;4.25;;;;;;;;;;5015989;28;20206;-70
2023/03/29 04:28:11;;;;;;;6.82;4.88;;;;;;;;;;5015653;28;20235;-69
2023/03/29 04:30:38;;;;;;;7.25;4.80;;;;;;;;;;5015339;28;20210;-69
2023/03/29 04:33:05;;;;;;;10.35;6.32;;;;;;;;;;5015641;28;20196;-69
2023/03/29 04:35:34;;;;;;;8.00;4.95;;;;;;;;;;5015339;28;20230;-69
2023/03/29 04:38:03;;;;;;;5.63;4.50;;;;;;;;;;5015586;28;20200;-70
2023/03/29 04:40:30;;;;;;;4.57;4.18;;;;;;;;;;5015738;28;20203;-70
2023/03/29 04:42:58;;;;;;;6.25;4.00;;;;;;;;;;5015755;28;20192;-70
2023/03/29 04:45:26;;;;;;;8.35;4.78;;;;;;;;;;5015670;28;20287;-70
2023/03/29 04:47:53;;;;;;;7.00;4.82;;;;;;;;;;5015579;28;20223;-70
2023/03/29 04:50:20;;;;;;;9.35;4.93;;;;;;;;;;5015752;28;20188;-71
2023/03/29 04:52:49;;;;;;;8.93;5.07;;;;;;;;;;4996149;28;20199;-70
2023/03/29 04:55:16;;;;;;;4.18;3.65;;;;;;;;;;4996018;28;20193;-70
2023/03/29 04:57:44;;;;;;;5.32;4.30;;;;;;;;;;4995898;28;20208;-70
2023/03/29 05:00:13;;;;;;;4.95;4.28;;;;;;;;;;4995907;28;20205;-70
2023/03/29 05:02:41;;;;;;;10.63;4.60;;;;;;;;;;4995439;28;20232;-70
2023/03/29 05:05:09;;;;;;;6.20;4.95;;;;;;;;;;4995441;28;20208;-70
2023/03/29 05:07:36;;;;;;;7.40;4.65;;;;;;;;;;4995558;28;20232;-70
2023/03/29 05:10:05;;;;;;;6.05;4.15;;;;;;;;;;4995879;28;20196;-70
2023/03/29 05:12:33;;;;;;;4.63;4.28;;;;;;;;;;4995376;28;20734;-70
2023/03/29 05:15:00;;;;;;;6.15;4.25;;;;;;;;;;4995703;28;20201;-70
2023/03/29 05:17:27;;;;;;;4.53;3.92;;;;;;;;;;4995441;28;20196;-70
2023/03/29 05:19:55;;;;;;;4.90;4.35;;;;;;;;;;4994444;28;20287;-70
2023/03/29 05:22:22;;;;;;;5.22;4.72;;;;;;;;;;4995005;28;20197;-70
2023/03/29 05:24:50;;;;;;;8.50;5.28;;;;;;;;;;4995386;28;20200;-70
2023/03/29 05:27:19;;;;;;;8.00;5.50;;;;;;;;;;4995190;28;20675;-70
2023/03/29 05:29:47;;;;;;;5.63;5.03;;;;;;;;;;4995500;28;20203;-70
2023/03/29 05:32:15;;;;;;;5.97;4.80;;;;;;;;;;4995009;28;20670;-70
2023/03/29 05:34:42;;;;;;;9.35;4.90;;;;;;;;;;4994889;28;20221;-70
2023/03/29 05:37:09;;;;;;;7.25;4.90;;;;;;;;;;4995069;28;20300;-70
2023/03/29 05:39:37;;;;;;;7.60;6.55;;;;;;;;;;4995111;28;20200;-70
2023/03/29 05:42:04;;;;;;;8.30;6.47;;;;;;;;;;4994957;28;20201;-70
2023/03/29 05:44:33;;;;;;;8.30;5.28;;;;;;;;;;4995761;28;20197;-70
2023/03/29 05:47:00;;;;;;;11.60;7.30;;;;;;;;;;4994843;28;20223;-70
2023/03/29 05:49:27;;;;;;;8.00;7.20;;;;;;;;;;4994940;28;20197;-70
2023/03/29 05:51:55;;;;;;;14.02;7.45;;;;;;;;;;4994790;28;20207;-70
2023/03/29 05:54:23;;;;;;;10.82;6.90;;;;;;;;;;4994813;28;20200;-70
2023/03/29 05:56:50;;;;;;;7.75;6.93;;;;;;;;;;4994806;28;20659;-70
2023/03/29 05:59:18;;;;;;;10.23;7.63;;;;;;;;;;4994774;28;20231;-70
2023/03/29 06:01:46;;;;;;;10.30;7.18;;;;;;;;;;4994277;28;20627;-71
2023/03/29 06:04:14;;;;;;;12.25;7.57;;;;;;;;;;4994613;28;20202;-71
2023/03/29 06:06:41;;;;;;;9.00;6.90;;;;;;;;;;4994551;28;20248;-71
2023/03/29 06:09:09;;;;;;;7.93;7.13;;;;;;;;;;4994454;28;20452;-70
2023/03/29 06:11:36;;;;;;;10.20;6.60;;;;;;;;;;4994336;28;20201;-70
2023/03/29 06:14:03;;;;;;;9.00;7.72;;;;;;;;;;4994359;28;20196;-69
2023/03/29 06:16:31;;;;;;;10.40;6.35;;;;;;;;;;4994157;28;20646;-70
2023/03/29 06:18:59;;;;;;;8.55;6.13;;;;;;;;;;4994296;28;20584;-70
2023/03/29 06:21:27;;;;;;;8.23;6.45;;;;;;;;;;4994929;28;20208;-70
2023/03/29 06:23:54;;;;;;;7.10;6.40;;;;;;;;;;4994583;28;20202;-70
2023/03/29 06:26:21;;;;;;;10.18;6.32;;;;;;;;;;4994234;28;20543;-70
2023/03/29 06:28:48;;;;;;;8.00;6.57;;;;;;;;;;4994064;28;20315;-70
2023/03/29 06:31:16;;;;;;;17.02;8.75;;;;;;;;;;4994133;28;20210;-70
2023/03/29 06:33:43;;;;;;;14.82;6.38;;;;;;;;;;4994310;28;20211;-70
2023/03/29 06:36:14;;;;;;;9.00;6.90;;;;;;;;;;4993988;28;20235;-70
2023/03/29 06:38:41;;;;;;;10.85;6.20;;;;;;;;;;4994384;28;20552;-70
2023/03/29 06:41:10;;;;;;;8.23;6.20;;;;;;;;;;4994079;28;20225;-70
2023/03/29 06:43:37;;;;;;;13.50;7.07;;;;;;;;;;4994020;28;20258;-70
2023/03/29 06:46:07;;;;;;;12.13;6.78;;;;;;;;;;4993730;28;20204;-70
2023/03/29 06:48:34;;;;;;;14.40;6.80;;;;;;;;;;4993865;28;20326;-70
2023/03/29 06:51:01;;;;;;;18.25;7.40;;;;;;;;;;4993730;28;20239;-70
2023/03/29 06:53:30;;;;;;;13.10;7.22;;;;;;;;;;4993896;28;20200;-70
2023/03/29 06:55:58;;;;;;;10.70;5.97;;;;;;;;;;4993796;28;20655;-70
2023/03/29 06:58:26;;;;;;;8.25;6.95;;;;;;;;;;4993975;28;20204;-70
2023/03/29 07:00:53;;;;;;;9.95;6.13;;;;;;;;;;4994057;28;20204;-70
2023/03/29 07:03:22;;;;;;;10.75;6.50;;;;;;;;;;4993784;28;20196;-70
2023/03/29 07:05:50;;;;;;;10.10;6.45;;;;;;;;;;4993490;28;20201;-70
2023/03/29 07:08:19;;;;;;;12.00;6.70;;;;;;;;;;4993671;28;20259;-70
2023/03/29 07:10:48;;;;;;;9.23;6.20;;;;;;;;;;4993795;28;20439;-70
2023/03/29 07:13:16;;;;;;;14.38;6.20;;;;;;;;;;4994096;28;20206;-70
2023/03/29 07:15:44;;;;;;;11.73;6.30;;;;;;;;;;4993513;28;20288;-70
2023/03/29 07:18:12;;;;;;;10.52;6.50;;;;;;;;;;4993736;28;20201;-70
2023/03/29 07:20:40;;;;;;;7.97;5.82;;;;;;;;;;4993975;28;20204;-70
2023/03/29 07:23:08;;;;;;;8.05;6.20;;;;;;;;;;4993739;28;20292;-70
2023/03/29 07:25:35;;;;;;;10.00;6.60;;;;;;;;;;4993962;28;20200;-70
2023/03/29 07:28:05;;;;;;;10.73;6.65;;;;;;;;;;4993214;28;20227;-70
2023/03/29 07:30:32;;;;;;;10.25;6.35;;;;;;;;;;4993675;28;20280;-70
2023/03/29 07:33:00;;;;;;;6.65;6.00;;;;;;;;;;4993852;28;20201;-70
2023/03/29 07:35:27;;;;;;;9.23;5.60;;;;;;;;;;4993558;28;20251;-70
2023/03/29 07:37:54;;;;;;;9.27;6.38;;;;;;;;;;4993238;28;20265;-70
2023/03/29 07:40:22;;;;;;;7.40;5.65;;;;;;;;;;4993769;28;20553;-70
2023/03/29 07:42:51;;;;;;;10.50;6.43;;;;;;;;;;4995718;28;20202;-70
2023/03/29 07:45:20;;;;;;;11.00;6.50;;;;;;;;;;4997187;28;20444;-69
2023/03/29 07:47:48;;;;;;;10.18;6.05;;;;;;;;;;4997136;28;20315;-70
2023/03/29 07:50:16;;;;;;;6.72;5.80;;;;;;;;;;4997131;28;20647;-70
2023/03/29 07:52:44;;;;;;;7.63;5.75;;;;;;;;;;4997111;28;20208;-70
2023/03/29 07:55:12;;;;;;;7.97;6.00;;;;;;;;;;4997035;28;20201;-69
2023/03/29 07:57:40;;;;;;;7.55;5.63;;;;;;;;;;4996986;28;20197;-70
2023/03/29 08:00:13;;;;;;;7.28;5.10;;;;;;;;;;4996553;28;20192;-69
2023/03/29 08:02:42;;;;;;;8.93;5.35;;;;;;;;;;4997198;28;20185;-69
2023/03/29 08:05:11;;;;;;;5.30;4.75;;;;;;;;;;5000911;28;20649;-69
2023/03/29 08:07:39;;;;;;;8.77;5.78;;;;;;;;;;5016371;28;20674;-70
2023/03/29 08:10:07;;;;;;;5.50;4.97;;;;;;;;;;5016109;28;20207;-69
2023/03/29 08:12:35;;;;;;;6.77;5.40;;;;;;;;;;5016108;28;20487;-69
2023/03/29 08:15:02;;;;;;;7.07;5.30;;;;;;;;;;5016149;28;20436;-70
2023/03/29 08:17:29;;;;;;;8.87;5.63;;;;;;;;;;5016126;28;20196;-69
2023/03/29 08:19:58;;;;;;;9.30;6.77;;;;;;;;;;5016214;28;20451;-70
2023/03/29 08:22:25;;;;;;;7.03;5.27;;;;;;;;;;5015883;28;20526;-70
2023/03/29 08:24:52;;;;;;;7.63;5.67;;;;;;;;;;5015789;28;20446;-69
2023/03/29 08:27:19;;;;;;;9.43;4.90;;;;;;;;;;5015665;28;20454;-69
2023/03/29 08:29:46;;;;;;;9.57;6.43;;;;;;;;;;5015556;28;20455;-70
2023/03/29 08:32:14;;;;;;;8.43;5.37;;;;;;;;;;5015879;28;20442;-70
2023/03/29 08:34:41;;;;;;;12.80;5.37;;;;;;;;;;5015252;28;20479;-69
2023/03/29 08:37:10;;;;;;;10.30;5.37;;;;;;;;;;5015925;28;20797;-69
2023/03/29 08:39:37;;;;;;;6.23;5.30;;;;;;;;;;5015673;28;20447;-70
2023/03/29 08:42:13;;;;;;;7.67;5.83;;;;;;;;;;5015856;28;20440;-69
2023/03/29 08:44:47;;;;;;;5.47;5.00;;;;;;;;;;5015772;28;20486;-70
2023/03/29 08:47:19;;;;;;;13.60;5.73;;;;;;;;;;5015769;28;20435;-70
2023/03/29 08:49:48;;;;;;;7.60;5.10;;;;;;;;;;5015997;28;20471;-69
2023/03/29 08:52:20;;;;;;;9.03;5.97;;;;;;;;;;5015508;28;20441;-70
2023/03/29 08:54:49;;;;;;;10.07;5.90;;;;;;;;;;5014561;28;20530;-70
2023/03/29 08:57:17;;;;;;;8.80;5.30;;;;;;;;;;5015416;28;20459;-70
2023/03/29 08:59:51;;;;;;;7.97;5.60;;;;;;;;;;5015016;28;20451;-69
2023/03/29 09:02:22;;;;;;;6.37;4.97;;;;;;;;;;5015087;28;20526;-70
2023/03/29 09:04:51;;;;;;;6.10;5.10;;;;;;;;;;5015281;28;20474;-70
2023/03/29 09:07:19;;;;;;;7.33;6.03;;;;;;;;;;5015332;28;20444;-70
2023/03/29 09:09:47;;;;;;;6.47;5.40;;;;;;;;;;5015196;28;20825;-70
2023/03/29 09:12:20;;;;;;;7.30;5.83;;;;;;;;;;5015162;28;20444;-70
2023/03/29 09:14:56;;;;;;;6.77;5.47;;;;;;;;;;5015873;28;20440;-70
2023/03/29 09:17:33;;;;;;;4.93;4.43;;;;;;;;;;5014837;28;20427;-70
2023/03/29 09:20:05;;;;;;;6.17;4.90;;;;;;;;;;5014979;28;20445;-70
2023/03/29 09:22:38;;;;;;;6.80;5.87;;;;;;;;;;5015169;28;20912;-70
2023/03/29 09:25:10;;;;;;;10.50;4.80;;;;;;;;;;5014890;28;20440;-70
2023/03/29 09:27:40;;;;;;;6.97;5.43;;;;;;;;;;5015140;28;20447;-70
2023/03/29 09:30:13;;;;;;;10.27;6.10;;;;;;;;;;5015039;28;20787;-70
2023/03/29 09:32:47;;;;;;;10.63;5.53;;;;;;;;;;5015258;28;20431;-70
2023/03/29 09:35:18;;;;;;;6.03;4.20;;;;;;;;;;5014369;28;21010;-70
2023/03/29 09:37:48;;;;;;;7.70;5.17;;;;;;;;;;5014736;28;20423;-70
2023/03/29 09:40:18;;;;;;;5.63;4.53;;;;;;;;;;5015047;28;20463;-70
2023/03/29 09:42:45;;;;;;;6.40;4.80;;;;;;;;;;5014562;28;20492;-70
2023/03/29 09:45:13;;;;;;;8.37;4.90;;;;;;;;;;5015080;28;20445;-70
2023/03/29 09:47:43;;;;;;;6.93;5.00;;;;;;;;;;5014428;28;20475;-70
2023/03/29 09:50:12;;;;;;;10.13;5.27;;;;;;;;;;5014471;28;20433;-70
2023/03/29 09:52:39;;;;;;;6.00;5.33;;;;;;;;;;5014443;28;20440;-70
2023/03/29 09:55:13;;;;;;;6.60;5.27;;;;;;;;;;5014309;28;20437;-70
2023/03/29 09:57:40;;;;;;;7.40;5.07;;;;;;;;;;5015482;28;20807;-70
2023/03/29 10:00:09;;;;;;;8.30;5.47;;;;;;;;;;5014180;28;20444;-70
2023/03/29 10:02:36;;;;;;;6.30;5.33;;;;;;;;;;5014203;28;20448;-69
2023/03/29 10:05:05;;;;;;;14.77;6.00;;;;;;;;;;5013918;28;20462;-69
2023/03/29 10:07:39;;;;;;;9.60;6.37;;;;;;;;;;5014175;28;20498;-69
2023/03/29 10:10:10;;;;;;;11.93;6.17;;;;;;;;;;5014553;28;20810;-69
2023/03/29 10:12:37;;;;;;;7.87;6.40;;;;;;;;;;5013825;28;20437;-69
2023/03/29 10:15:05;;;;;;;9.40;7.03;;;;;;;;;;5013823;28;20443;-69
2023/03/29 10:17:38;;;;;;;6.53;5.33;;;;;;;;;;5014487;28;20856;-69
2023/03/29 10:20:13;;;;;;;8.57;6.43;;;;;;;;;;5013769;28;20517;-69
2023/03/29 10:22:47;;;;;;;12.43;6.63;;;;;;;;;;5014685;28;20433;-69
2023/03/29 10:25:17;;;;;;;14.23;6.77;;;;;;;;;;5014026;28;20425;-69
2023/03/29 10:27:45;;;;;;;8.47;6.70;;;;;;;;;;5013947;28;20445;-70
2023/03/29 10:30:13;;;;;;;16.33;7.10;;;;;;;;;;5013817;28;20846;-69
2023/03/29 10:32:40;;;;;;;11.30;7.27;;;;;;;;;;5014321;28;20534;-69
2023/03/29 10:35:09;;;;;;;8.03;6.20;;;;;;;;;;5013479;28;20489;-70
2023/03/29 10:37:40;;;;;;;10.53;6.13;;;;;;;;;;5013878;28;20505;-69
2023/03/29 10:40:08;;;;;;;10.37;8.07;;;;;;;;;;5013901;28;20435;-69
2023/03/29 10:42:36;;;;;;;10.57;7.70;;;;;;;;;;5013931;28;20878;-69
2023/03/29 10:45:04;;;;;;;14.17;7.77;;;;;;;;;;5013776;28;20530;-68
2023/03/29 10:47:33;;;;;;;12.37;8.13;;;;;;;;;;5013631;28;20445;-68
2023/03/29 10:50:01;;;;;;;14.37;9.40;;;;;;;;;;5013934;28;20511;-68
2023/03/29 10:52:30;;;;;;;10.20;8.40;;;;;;;;;;5013672;28;20444;-68
2023/03/29 10:54:58;;;;;;;9.83;8.33;;;;;;;;;;5014234;28;20444;-68
2023/03/29 10:57:30;;;;;;;12.43;7.00;;;;;;;;;;5013863;28;20450;-68
2023/03/29 11:00:03;;;;;;;10.83;8.47;;;;;;;;;;5013584;28;20910;-68
2023/03/29 11:02:52;;;;;;;12.20;8.13;;;;;;;;;;5013276;28;20432;-68
2023/03/29 11:05:23;;;;;;;12.17;7.33;;;;;;;;;;4989101;28;20474;-68
2023/03/29 11:07:56;;;;;;;8.03;7.10;;;;;;;;;;5013529;28;20463;-68
2023/03/29 11:10:28;;;;;;;9.50;7.87;;;;;;;;;;5014028;28;20433;-68
2023/03/29 11:12:58;;;;;;;10.30;9.30;;;;;;;;;;5013450;28;20495;-68
2023/03/29 11:15:34;;;;;;;11.80;8.80;;;;;;;;;;5013150;28;20447;-68
2023/03/29 11:18:07;;;;;;;10.60;9.33;;;;;;;;;;5015343;28;20885;-68
2023/03/29 11:20:38;;;;;;;14.00;11.07;;;;;;;;;;5017685;28;20435;-68
2023/03/29 11:23:11;;;;;;;18.10;11.50;;;;;;;;;;5017076;28;20486;-68
2023/03/29 11:25:43;;;;;;;12.50;10.90;;;;;;;;;;5016961;28;20436;-68
2023/03/29 11:28:14;;;;;;;18.17;11.63;;;;;;;;;;5017145;28;20439;-69
2023/03/29 11:30:46;;;;;;;13.13;11.60;;;;;;;;;;5017216;28;20432;-68
2023/03/29 11:33:19;;;;;;;12.77;10.27;;;;;;;;;;5017135;28;20432;-68
2023/03/29 11:35:53;;;;;;;11.87;10.67;;;;;;;;;;5017196;28;20518;-69
2023/03/29 11:38:23;;;;;;;19.50;11.60;;;;;;;;;;5017291;28;20785;-68
2023/03/29 11:40:53;;;;;;;11.67;9.50;;;;;;;;;;5016985;28;20444;-68
2023/03/29 11:43:23;;;;;;;10.90;9.30;;;;;;;;;;5016879;28;20440;-69
2023/03/29 11:45:53;;;;;;;10.50;9.03;;;;;;;;;;5016531;28;20452;-67
2023/03/29 11:48:22;;;;;;;12.90;10.27;;;;;;;;;;5016398;28;20451;-68
2023/03/29 11:50:52;;;;;;;15.50;11.57;;;;;;;;;;5016767;28;20501;-68
2023/03/29 11:53:23;;;;;;;12.40;9.43;;;;;;;;;;5016819;28;20433;-68
2023/03/29 11:55:51;;;;;;;11.03;9.20;;;;;;;;;;5016897;28;20438;-68
2023/03/29 11:58:21;;;;;;;10.83;9.17;;;;;;;;;;5016499;28;20879;-68
2023/03/29 12:00:49;;;;;;;11.33;9.50;;;;;;;;;;5016215;28;20463;-68
2023/03/29 12:03:22;;;;;;;12.83;9.30;;;;;;;;;;5016548;28;20775;-68
2023/03/29 12:05:51;;;;;;;10.67;8.30;;;;;;;;;;5017091;28;20450;-68
2023/03/29 12:08:22;;;;;;;10.07;7.60;;;;;;;;;;5016342;28;20540;-68
2023/03/29 12:10:51;;;;;;;13.97;9.20;;;;;;;;;;5016401;28;20852;-69
2023/03/29 12:13:22;;;;;;;12.00;8.80;;;;;;;;;;5016423;28;20445;-68
2023/03/29 12:15:53;;;;;;;10.07;7.70;;;;;;;;;;5016257;28;20465;-68
2023/03/29 12:18:24;;;;;;;8.70;7.27;;;;;;;;;;5016362;28;20482;-67
2023/03/29 12:20:54;;;;;;;12.43;7.40;;;;;;;;;;5016134;28;20437;-68
2023/03/29 12:23:22;;;;;;;13.50;7.53;;;;;;;;;;5016253;28;20484;-68
2023/03/29 12:25:53;;;;;;;10.30;7.80;;;;;;;;;;5016216;28;20915;-68
2023/03/29 12:28:25;;;;;;;12.10;8.07;;;;;;;;;;5016114;28;20505;-68
2023/03/29 12:30:58;;;;;;;7.47;6.83;;;;;;;;;;5016616;28;20437;-68
2023/03/29 12:33:41;;;;;;;10.30;7.40;;;;;;;;;;5016340;28;20438;-68
2023/03/29 12:36:25;;;;;;;7.93;7.20;;;;;;;;;;5015356;28;20477;-68
2023/03/29 12:38:52;;;;;;;9.63;7.67;;;;;;;;;;5014726;28;20445;-68
2023/03/29 12:41:20;;;;;;;9.20;7.30;;;;;;;;;;5014508;28;20445;-68
2023/03/29 12:43:49;;;;;;;7.73;6.93;;;;;;;;;;5014399;28;20465;-68
2023/03/29 12:46:18;;;;;;;9.53;7.17;;;;;;;;;;5014763;28;20538;-68
2023/03/29 12:48:48;;;;;;;9.10;7.47;;;;;;;;;;5014647;28;20962;-68
2023/03/29 12:51:16;;;;;;;10.70;7.47;;;;;;;;;;5014611;28;20568;-68
2023/03/29 12:53:45;;;;;;;11.50;7.03;;;;;;;;;;5014667;28;20446;-69
2023/03/29 12:56:14;;;;;;;8.67;7.43;;;;;;;;;;5014418;28;20450;-67
2023/03/29 12:58:43;;;;;;;9.90;6.40;;;;;;;;;;5014628;28;20446;-76
2023/03/29 13:01:22;;;;;;;8.63;7.70;;;;;;;;;;5014789;28;20450;-76
2023/03/29 13:03:51;;;;;;;11.43;7.43;;;;;;;;;;5013936;28;20943;-68
2023/03/29 13:06:30;;;;;;;8.90;7.10;;;;;;;;;;5014564;28;20456;-69
2023/03/29 13:09:04;;;;;;;7.17;6.47;;;;;;;;;;5013918;28;20966;-68
2023/03/29 13:11:35;;;;;;;8.50;6.57;;;;;;;;;;5014947;28;20428;-68
2023/03/29 13:14:04;;;;;;;9.83;6.90;;;;;;;;;;5014367;28;20467;-67
2023/03/29 13:16:33;;;;;;;7.40;5.90;;;;;;;;;;5014273;28;20938;-68
2023/03/29 13:19:10;;;;;;;14.70;7.27;;;;;;;;;;5002415;28;20458;-68
2023/03/29 13:21:41;;;;;;;8.20;6.50;;;;;;;;;;4995057;28;20513;-68
2023/03/29 13:24:18;;;;;;;7.43;6.50;;;;;;;;;;4994683;28;20447;-68
2023/03/29 13:26:50;;;;;;;7.63;6.70;;;;;;;;;;4994572;28;20510;-68
2023/03/29 13:29:27;;;;;;;10.20;6.90;;;;;;;;;;4994313;28;20578;-68
2023/03/29 13:31:59;;;;;;;11.50;6.43;;;;;;;;;;4994112;28;20468;-68
2023/03/29 13:34:34;;;;;;;10.83;7.47;;;;;;;;;;4949174;28;1299935;-68
2023/03/29 13:37:07;;;;;;;8.60;6.40;;;;;;;;;;4994981;28;20273;-68
2023/03/29 13:39:36;;;;;;;9.20;6.37;;;;;;;;;;4994702;28;20518;-68
2023/03/29 13:42:08;;;;;;;8.40;6.20;;;;;;;;;;4995411;28;20452;-68
2023/03/29 13:44:42;;;;;;;7.60;6.67;;;;;;;;;;4995108;28;20483;-68
2023/03/29 13:47:15;;;;;;;6.57;5.80;;;;;;;;;;4994618;28;20422;-69
2023/03/29 13:49:44;;;;;;;8.03;6.60;;;;;;;;;;4994160;28;20470;-68
2023/03/29 13:52:15;;;;;;;8.80;6.70;;;;;;;;;;4994727;28;20443;-68
2023/03/29 13:54:44;;;;;;;8.53;6.73;;;;;;;;;;4994955;28;20434;-68
2023/03/29 13:57:14;;;;;;;8.83;7.60;;;;;;;;;;4994357;28;20447;-68
2023/03/29 13:59:45;;;;;;;8.33;6.50;;;;;;;;;;4994578;28;20450;-68
2023/03/29 14:02:17;;;;;;;7.97;6.43;;;;;;;;;;4994221;28;20523;-68
2023/03/29 14:04:47;;;;;;;8.00;6.70;;;;;;;;;;4994242;28;20536;-69
2023/03/29 14:07:15;;;;;;;9.90;7.20;;;;;;;;;;4994278;28;20431;-69
2023/03/29 14:09:44;;;;;;;10.67;8.10;;;;;;;;;;4993915;28;21032;-68
2023/03/29 14:12:13;;;;;;;7.70;6.90;;;;;;;;;;4994240;28;20805;-69
2023/03/29 14:14:41;;;;;;;7.83;7.03;;;;;;;;;;4994300;28;20458;-68
2023/03/29 14:17:08;;;;;;;8.20;6.87;;;;;;;;;;4994027;28;20455;-68
2023/03/29 14:19:36;;;;;;;11.00;7.33;;;;;;;;;;4993955;28;20498;-68
2023/03/29 14:22:08;;;;;;;8.53;7.40;;;;;;;;;;4994368;28;20478;-69
2023/03/29 14:24:37;;;;;;;8.37;6.80;;;;;;;;;;4994468;28;20523;-69
2023/03/29 14:27:05;;;;;;;7.73;6.93;;;;;;;;;;4994126;28;20451;-69
2023/03/29 14:29:33;;;;;;;12.67;6.80;;;;;;;;;;4993934;28;20499;-69
2023/03/29 14:32:09;;;;;;;13.00;7.50;;;;;;;;;;4993972;28;20451;-68
2023/03/29 14:34:36;;;;;;;8.53;6.97;;;;;;;;;;4994161;28;20475;-68
2023/03/29 14:37:04;;;;;;;8.20;6.97;;;;;;;;;;4994133;28;20459;-69
2023/03/29 14:39:34;;;;;;;12.83;7.50;;;;;;;;;;4993964;28;20448;-68
2023/03/29 14:42:02;;;;;;;9.60;7.27;;;;;;;;;;4994005;28;20448;-69
2023/03/29 14:44:30;;;;;;;11.43;8.37;;;;;;;;;;4993977;28;20535;-68
2023/03/29 14:46:58;;;;;;;10.43;6.90;;;;;;;;;;4994190;28;20983;-68
2023/03/29 14:49:25;;;;;;;8.60;7.00;;;;;;;;;;4993130;28;20451;-68